sensor_id;sensor_type;location;lat;lon;timestamp;pressure;altitude;pressure_sealevel;temperature;humidity
38054;BME280;23859;50.672;7.164;2023-01-28T00:02:12;101829.19;;;5.06;94.94
38054;BME280;23859;50.672;7.164;2023-01-28T00:04:39;101821.06;;;5.10;94.69
38054;BME280;23859;50.672;7.164;2023-01-28T00:07:05;101823.16;;;5.04;95.50
38054;BME280;23859;50.672;7.164;2023-01-28T00:09:31;101827.63;;;5.02;95.52
38054;BME280;23859;50.672;7.164;2023-01-28T00:11:57;101824.84;;;5.05;95.13
38054;BME280;23859;50.672;7.164;2023-01-28T00:14:23;101823.44;;;4.98;95.49
38054;BME280;23859;50.672;7.164;2023-01-28T00:16:50;101821.44;;;5.03;95.62
38054;BME280;23859;50.672;7.164;2023-01-28T00:19:16;101822.34;;;5.02;95.55
38054;BME280;23859;50.672;7.164;2023-01-28T00:21:42;101818.78;;;5.21;93.90
38054;BME280;23859;50.672;7.164;2023-01-28T00:24:08;101813.25;;;5.09;94.42
38054;BME280;23859;50.672;7.164;2023-01-28T00:26:34;101806.44;;;5.22;93.38
38054;BME280;23859;50.672;7.164;2023-01-28T00:29:01;101813.03;;;5.13;93.92
38054;BME280;23859;50.672;7.164;2023-01-28T00:31:28;101805.47;;;5.06;94.64
38054;BME280;23859;50.672;7.164;2023-01-28T00:33:55;101804.78;;;5.02;93.75
38054;BME280;23859;50.672;7.164;2023-01-28T00:36:23;101806.44;;;5.05;92.88
38054;BME280;23859;50.672;7.164;2023-01-28T00:38:51;101802.44;;;4.96;94.55
38054;BME280;23859;50.672;7.164;2023-01-28T00:41:20;101804.00;;;5.00;93.97
38054;BME280;23859;50.672;7.164;2023-01-28T00:43:47;101808.75;;;4.92;95.59
38054;BME280;23859;50.672;7.164;2023-01-28T00:46:14;101808.44;;;5.00;95.20
38054;BME280;23859;50.672;7.164;2023-01-28T00:48:41;101814.81;;;5.13;93.26
38054;BME280;23859;50.672;7.164;2023-01-28T00:51:09;101810.09;;;5.01;93.99
38054;BME280;23859;50.672;7.164;2023-01-28T00:53:36;101814.59;;;4.99;94.98
38054;BME280;23859;50.672;7.164;2023-01-28T00:56:04;101810.81;;;4.86;94.86
38054;BME280;23859;50.672;7.164;2023-01-28T00:58:31;101809.38;;;4.79;95.84
38054;BME280;23859;50.672;7.164;2023-01-28T01:01:13;101810.06;;;4.84;95.78
38054;BME280;23859;50.672;7.164;2023-01-28T01:03:39;101814.72;;;4.77;95.47
38054;BME280;23859;50.672;7.164;2023-01-28T01:06:10;101806.56;;;4.83;94.71
38054;BME280;23859;50.672;7.164;2023-01-28T01:08:37;101811.53;;;4.89;94.40
38054;BME280;23859;50.672;7.164;2023-01-28T01:11:09;101809.09;;;4.85;94.72
38054;BME280;23859;50.672;7.164;2023-01-28T01:13:36;101810.09;;;4.82;94.46
38054;BME280;23859;50.672;7.164;2023-01-28T01:16:06;101807.81;;;4.75;94.92
38054;BME280;23859;50.672;7.164;2023-01-28T01:18:34;101807.09;;;4.71;94.51
38054;BME280;23859;50.672;7.164;2023-01-28T01:21:00;101815.00;;;4.71;96.02
38054;BME280;23859;50.672;7.164;2023-01-28T01:23:28;101803.78;;;4.68;95.30
38054;BME280;23859;50.672;7.164;2023-01-28T01:25:54;101806.19;;;4.72;94.85
38054;BME280;23859;50.672;7.164;2023-01-28T01:28:20;101804.13;;;4.79;94.01
38054;BME280;23859;50.672;7.164;2023-01-28T01:30:48;101798.72;;;4.82;93.84
38054;BME280;23859;50.672;7.164;2023-01-28T01:33:14;101805.06;;;4.96;92.49
38054;BME280;23859;50.672;7.164;2023-01-28T01:35:41;101808.25;;;4.84;93.27
38054;BME280;23859;50.672;7.164;2023-01-28T01:38:07;101806.00;;;4.95;91.94
38054;BME280;23859;50.672;7.164;2023-01-28T01:40:33;101807.00;;;4.93;92.72
38054;BME280;23859;50.672;7.164;2023-01-28T01:42:59;101811.38;;;4.92;92.26
38054;BME280;23859;50.672;7.164;2023-01-28T01:45:27;101807.44;;;4.84;93.15
38054;BME280;23859;50.672;7.164;2023-01-28T01:47:58;101813.69;;;5.00;91.84
38054;BME280;23859;50.672;7.164;2023-01-28T01:50:36;101806.13;;;4.74;94.39
38054;BME280;23859;50.672;7.164;2023-01-28T01:53:11;101807.81;;;4.75;93.72
38054;BME280;23859;50.672;7.164;2023-01-28T01:55:41;101799.44;;;4.67;95.16
38054;BME280;23859;50.672;7.164;2023-01-28T01:58:12;101802.28;;;4.62;95.04
38054;BME280;23859;50.672;7.164;2023-01-28T02:00:39;101804.19;;;4.59;95.31
38054;BME280;23859;50.672;7.164;2023-01-28T02:03:07;101808.25;;;4.66;95.14
38054;BME280;23859;50.672;7.164;2023-01-28T02:05:34;101807.34;;;4.67;94.86
38054;BME280;23859;50.672;7.164;2023-01-28T02:08:01;101810.81;;;4.86;93.33
38054;BME280;23859;50.672;7.164;2023-01-28T02:10:52;101816.34;;;4.61;93.30
38054;BME280;23859;50.672;7.164;2023-01-28T02:13:21;101821.50;;;4.83;93.08
38054;BME280;23859;50.672;7.164;2023-01-28T02:15:50;101816.66;;;4.92;92.26
38054;BME280;23859;50.672;7.164;2023-01-28T02:18:16;101818.50;;;5.09;90.93
38054;BME280;23859;50.672;7.164;2023-01-28T02:23:59;101831.59;;;4.73;92.46
38054;BME280;23859;50.672;7.164;2023-01-28T02:32:39;101837.28;;;4.64;92.99
38054;BME280;23859;50.672;7.164;2023-01-28T02:37:53;101835.53;;;4.45;94.16
38054;BME280;23859;50.672;7.164;2023-01-28T02:40:27;101837.44;;;4.42;94.42
38054;BME280;23859;50.672;7.164;2023-01-28T02:42:55;101833.66;;;4.47;93.51
38054;BME280;23859;50.672;7.164;2023-01-28T02:45:32;101831.41;;;4.58;91.88
38054;BME280;23859;50.672;7.164;2023-01-28T02:48:20;101827.22;;;4.54;92.33
38054;BME280;23859;50.672;7.164;2023-01-28T02:50:54;101830.38;;;4.42;92.38
38054;BME280;23859;50.672;7.164;2023-01-28T02:53:40;101830.00;;;4.51;92.46
38054;BME280;23859;50.672;7.164;2023-01-28T02:58:43;101829.16;;;4.31;93.23
38054;BME280;23859;50.672;7.164;2023-01-28T03:01:27;101827.13;;;4.17;94.39
38054;BME280;23859;50.672;7.164;2023-01-28T03:04:13;101835.59;;;4.24;94.16
38054;BME280;23859;50.672;7.164;2023-01-28T03:06:47;101842.66;;;4.03;96.13
38054;BME280;23859;50.672;7.164;2023-01-28T03:09:15;101844.72;;;3.95;95.33
38054;BME280;23859;50.672;7.164;2023-01-28T03:12:05;101851.97;;;3.91;96.63
38054;BME280;23859;50.672;7.164;2023-01-28T03:15:02;101852.28;;;3.83;97.22
38054;BME280;23859;50.672;7.164;2023-01-28T03:17:48;101852.81;;;3.91;96.14
38054;BME280;23859;50.672;7.164;2023-01-28T03:26:32;101871.06;;;3.74;98.41
38054;BME280;23859;50.672;7.164;2023-01-28T03:29:20;101868.72;;;3.67;98.17
38054;BME280;23859;50.672;7.164;2023-01-28T03:32:07;101869.94;;;4.01;95.69
38054;BME280;23859;50.672;7.164;2023-01-28T03:34:53;101874.13;;;3.85;95.86
38054;BME280;23859;50.672;7.164;2023-01-28T03:37:37;101873.00;;;3.91;95.39
38054;BME280;23859;50.672;7.164;2023-01-28T03:40:06;101883.50;;;3.91;94.30
38054;BME280;23859;50.672;7.164;2023-01-28T03:42:32;101881.03;;;4.07;93.80
38054;BME280;23859;50.672;7.164;2023-01-28T03:44:59;101887.88;;;4.11;93.33
38054;BME280;23859;50.672;7.164;2023-01-28T03:47:28;101891.81;;;4.21;92.56
38054;BME280;23859;50.672;7.164;2023-01-28T03:49:56;101892.59;;;4.03;93.77
38054;BME280;23859;50.672;7.164;2023-01-28T03:52:25;101892.59;;;4.03;94.03
38054;BME280;23859;50.672;7.164;2023-01-28T03:54:51;101896.47;;;3.95;93.70
38054;BME280;23859;50.672;7.164;2023-01-28T03:57:20;101895.19;;;3.84;95.28
38054;BME280;23859;50.672;7.164;2023-01-28T03:59:47;101888.75;;;3.91;93.68
38054;BME280;23859;50.672;7.164;2023-01-28T04:02:15;101899.09;;;3.74;94.57
38054;BME280;23859;50.672;7.164;2023-01-28T04:04:41;101906.88;;;3.77;94.80
38054;BME280;23859;50.672;7.164;2023-01-28T04:07:09;101899.59;;;3.83;93.99
38054;BME280;23859;50.672;7.164;2023-01-28T04:09:36;101896.09;;;3.83;93.43
38054;BME280;23859;50.672;7.164;2023-01-28T04:12:02;101901.72;;;3.74;93.46
38054;BME280;23859;50.672;7.164;2023-01-28T04:14:29;101909.53;;;3.75;94.90
38054;BME280;23859;50.672;7.164;2023-01-28T04:16:56;101900.38;;;3.64;94.10
38054;BME280;23859;50.672;7.164;2023-01-28T04:19:23;101902.03;;;3.66;94.39
38054;BME280;23859;50.672;7.164;2023-01-28T04:21:49;101905.63;;;3.42;96.20
38054;BME280;23859;50.672;7.164;2023-01-28T04:24:16;101908.22;;;3.44;96.08
38054;BME280;23859;50.672;7.164;2023-01-28T04:26:42;101901.47;;;3.37;96.29
38054;BME280;23859;50.672;7.164;2023-01-28T04:29:08;101901.94;;;3.25;97.72
38054;BME280;23859;50.672;7.164;2023-01-28T04:31:34;101905.22;;;3.09;98.49
38054;BME280;23859;50.672;7.164;2023-01-28T04:34:00;101902.06;;;2.99;99.28
38054;BME280;23859;50.672;7.164;2023-01-28T04:36:26;101907.59;;;2.92;100.00
38054;BME280;23859;50.672;7.164;2023-01-28T04:38:52;101910.16;;;2.93;99.77
38054;BME280;23859;50.672;7.164;2023-01-28T04:41:19;101913.25;;;3.04;99.77
38054;BME280;23859;50.672;7.164;2023-01-28T04:43:45;101913.53;;;2.97;98.94
38054;BME280;23859;50.672;7.164;2023-01-28T04:46:14;101913.38;;;3.01;100.00
38054;BME280;23859;50.672;7.164;2023-01-28T04:48:40;101918.78;;;3.20;98.55
38054;BME280;23859;50.672;7.164;2023-01-28T04:51:06;101927.34;;;3.25;99.30
38054;BME280;23859;50.672;7.164;2023-01-28T04:53:33;101923.16;;;3.19;100.00
38054;BME280;23859;50.672;7.164;2023-01-28T04:55:59;101927.50;;;3.20;99.38
38054;BME280;23859;50.672;7.164;2023-01-28T04:58:25;101923.69;;;3.28;100.00
38054;BME280;23859;50.672;7.164;2023-01-28T05:00:58;101924.66;;;3.26;99.54
38054;BME280;23859;50.672;7.164;2023-01-28T05:03:25;101927.59;;;3.40;99.90
38054;BME280;23859;50.672;7.164;2023-01-28T05:05:51;101924.97;;;3.40;98.07
38054;BME280;23859;50.672;7.164;2023-01-28T05:08:18;101928.63;;;3.36;98.43
38054;BME280;23859;50.672;7.164;2023-01-28T05:10:44;101928.41;;;3.19;98.64
38054;BME280;23859;50.672;7.164;2023-01-28T05:13:10;101927.72;;;3.37;97.77
38054;BME280;23859;50.672;7.164;2023-01-28T05:15:36;101931.72;;;3.24;97.90
38054;BME280;23859;50.672;7.164;2023-01-28T05:18:02;101808.25;;;2.83;95.83
38054;BME280;23859;50.672;7.164;2023-01-28T05:20:28;101936.72;;;3.31;97.57
38054;BME280;23859;50.672;7.164;2023-01-28T05:22:54;101934.88;;;3.33;97.11
38054;BME280;23859;50.672;7.164;2023-01-28T05:25:20;101946.84;;;3.18;96.42
38054;BME280;23859;50.672;7.164;2023-01-28T05:27:53;101939.22;;;3.12;97.80
38054;BME280;23859;50.672;7.164;2023-01-28T05:30:20;101948.19;;;3.06;96.80
38054;BME280;23859;50.672;7.164;2023-01-28T05:32:46;101946.59;;;3.02;98.95
38054;BME280;23859;50.672;7.164;2023-01-28T05:35:12;101949.66;;;3.13;98.41
38054;BME280;23859;50.672;7.164;2023-01-28T05:37:38;101946.69;;;3.22;97.40
38054;BME280;23859;50.672;7.164;2023-01-28T05:40:05;101950.16;;;3.23;96.97
38054;BME280;23859;50.672;7.164;2023-01-28T05:42:31;101951.94;;;3.22;97.59
38054;BME280;23859;50.672;7.164;2023-01-28T05:44:57;101945.78;;;3.23;97.05
38054;BME280;23859;50.672;7.164;2023-01-28T05:47:23;101947.16;;;3.33;96.51
38054;BME280;23859;50.672;7.164;2023-01-28T05:49:49;101949.72;;;3.34;95.89
38054;BME280;23859;50.672;7.164;2023-01-28T05:52:15;101951.53;;;3.32;96.13
38054;BME280;23859;50.672;7.164;2023-01-28T05:54:41;101951.88;;;3.24;96.45
38054;BME280;23859;50.672;7.164;2023-01-28T05:57:07;101951.97;;;3.43;95.75
38054;BME280;23859;50.672;7.164;2023-01-28T05:59:33;101957.69;;;3.54;94.62
38054;BME280;23859;50.672;7.164;2023-01-28T06:01:59;101959.09;;;3.41;94.40
38054;BME280;23859;50.672;7.164;2023-01-28T06:04:25;101967.19;;;3.35;95.79
38054;BME280;23859;50.672;7.164;2023-01-28T06:06:51;101960.09;;;3.37;94.69
38054;BME280;23859;50.672;7.164;2023-01-28T06:09:17;101962.69;;;3.16;95.19
38054;BME280;23859;50.672;7.164;2023-01-28T06:11:43;101963.59;;;3.15;96.72
38054;BME280;23859;50.672;7.164;2023-01-28T06:14:10;101974.22;;;3.12;95.80
38054;BME280;23859;50.672;7.164;2023-01-28T06:16:36;101970.78;;;3.10;96.09
38054;BME280;23859;50.672;7.164;2023-01-28T06:19:02;101988.25;;;3.11;97.35
38054;BME280;23859;50.672;7.164;2023-01-28T06:21:28;101981.06;;;3.16;96.13
38054;BME280;23859;50.672;7.164;2023-01-28T06:23:54;101974.91;;;3.17;95.19
38054;BME280;23859;50.672;7.164;2023-01-28T06:26:20;101983.25;;;3.28;93.90
38054;BME280;23859;50.672;7.164;2023-01-28T06:28:46;101989.97;;;3.12;94.33
38054;BME280;23859;50.672;7.164;2023-01-28T06:31:13;101980.59;;;3.05;94.65
38054;BME280;23859;50.672;7.164;2023-01-28T06:33:39;101991.25;;;3.01;95.62
38054;BME280;23859;50.672;7.164;2023-01-28T06:36:05;101991.44;;;2.96;96.08
38054;BME280;23859;50.672;7.164;2023-01-28T06:38:32;101992.41;;;2.92;95.45
38054;BME280;23859;50.672;7.164;2023-01-28T06:40:58;101988.34;;;3.08;95.08
38054;BME280;23859;50.672;7.164;2023-01-28T06:43:24;101992.88;;;3.05;95.87
38054;BME280;23859;50.672;7.164;2023-01-28T06:45:55;101990.19;;;3.06;95.49
38054;BME280;23859;50.672;7.164;2023-01-28T06:48:21;101992.28;;;2.97;96.66
38054;BME280;23859;50.672;7.164;2023-01-28T06:50:48;101990.94;;;3.10;95.68
38054;BME280;23859;50.672;7.164;2023-01-28T06:53:15;101995.41;;;3.30;93.22
38054;BME280;23859;50.672;7.164;2023-01-28T06:55:41;102005.50;;;3.18;94.60
38054;BME280;23859;50.672;7.164;2023-01-28T06:58:07;102003.72;;;3.19;94.60
38054;BME280;23859;50.672;7.164;2023-01-28T07:00:34;102001.72;;;3.25;94.55
38054;BME280;23859;50.672;7.164;2023-01-28T07:03:00;102004.75;;;3.60;91.49
38054;BME280;23859;50.672;7.164;2023-01-28T07:05:26;102004.34;;;3.48;92.13
38054;BME280;23859;50.672;7.164;2023-01-28T07:07:52;102009.75;;;3.43;93.33
38054;BME280;23859;50.672;7.164;2023-01-28T07:10:18;102008.69;;;3.26;92.75
38054;BME280;23859;50.672;7.164;2023-01-28T07:12:44;102004.25;;;3.28;93.57
38054;BME280;23859;50.672;7.164;2023-01-28T07:15:10;102004.81;;;3.36;93.44
38054;BME280;23859;50.672;7.164;2023-01-28T07:17:40;102002.25;;;3.34;92.90
38054;BME280;23859;50.672;7.164;2023-01-28T07:20:08;102007.19;;;3.42;91.48
38054;BME280;23859;50.672;7.164;2023-01-28T07:22:36;102004.47;;;3.45;91.35
38054;BME280;23859;50.672;7.164;2023-01-28T07:25:04;102007.88;;;3.47;91.72
38054;BME280;23859;50.672;7.164;2023-01-28T07:27:30;102002.53;;;3.50;90.98
38054;BME280;23859;50.672;7.164;2023-01-28T07:29:57;101999.84;;;3.51;91.29
38054;BME280;23859;50.672;7.164;2023-01-28T07:32:23;102002.53;;;3.50;91.32
38054;BME280;23859;50.672;7.164;2023-01-28T07:34:52;101992.25;;;3.44;91.94
38054;BME280;23859;50.672;7.164;2023-01-28T07:37:18;102003.75;;;3.63;89.60
38054;BME280;23859;50.672;7.164;2023-01-28T07:39:44;102004.88;;;3.57;90.71
38054;BME280;23859;50.672;7.164;2023-01-28T07:42:10;102008.03;;;3.65;88.70
38054;BME280;23859;50.672;7.164;2023-01-28T07:44:36;102001.38;;;3.57;89.85
38054;BME280;23859;50.672;7.164;2023-01-28T07:47:03;102002.28;;;3.56;90.27
38054;BME280;23859;50.672;7.164;2023-01-28T07:49:32;102012.28;;;3.46;90.74
38054;BME280;23859;50.672;7.164;2023-01-28T07:51:58;102006.69;;;3.55;90.14
38054;BME280;23859;50.672;7.164;2023-01-28T07:54:25;102018.50;;;3.67;89.31
38054;BME280;23859;50.672;7.164;2023-01-28T07:56:51;102016.44;;;3.52;91.64
38054;BME280;23859;50.672;7.164;2023-01-28T07:59:17;102021.84;;;3.49;91.34
38054;BME280;23859;50.672;7.164;2023-01-28T08:01:43;102026.22;;;3.48;91.48
38054;BME280;23859;50.672;7.164;2023-01-28T08:04:09;102028.97;;;3.45;93.40
38054;BME280;23859;50.672;7.164;2023-01-28T08:06:35;102029.81;;;3.69;90.67
38054;BME280;23859;50.672;7.164;2023-01-28T08:09:04;102032.66;;;3.63;91.29
38054;BME280;23859;50.672;7.164;2023-01-28T08:11:31;102029.88;;;3.44;93.07
38054;BME280;23859;50.672;7.164;2023-01-28T08:13:58;102021.84;;;3.49;92.49
38054;BME280;23859;50.672;7.164;2023-01-28T08:16:24;102022.97;;;3.65;89.91
38054;BME280;23859;50.672;7.164;2023-01-28T08:18:51;102025.25;;;3.51;91.79
38054;BME280;23859;50.672;7.164;2023-01-28T08:21:17;102028.38;;;3.37;91.44
38054;BME280;23859;50.672;7.164;2023-01-28T08:23:43;102029.25;;;3.38;91.99
38054;BME280;23859;50.672;7.164;2023-01-28T08:26:09;102025.31;;;3.72;90.20
38054;BME280;23859;50.672;7.164;2023-01-28T08:28:35;102025.00;;;3.57;91.24
38054;BME280;23859;50.672;7.164;2023-01-28T08:31:01;102031.88;;;3.61;90.56
38054;BME280;23859;50.672;7.164;2023-01-28T08:33:28;102028.53;;;3.56;91.31
38054;BME280;23859;50.672;7.164;2023-01-28T08:35:54;102032.13;;;3.55;90.16
38054;BME280;23859;50.672;7.164;2023-01-28T08:38:20;102030.44;;;3.75;89.80
38054;BME280;23859;50.672;7.164;2023-01-28T08:40:47;102023.63;;;3.93;88.16
38054;BME280;23859;50.672;7.164;2023-01-28T08:43:15;102019.72;;;4.02;87.58
38054;BME280;23859;50.672;7.164;2023-01-28T08:45:41;102023.00;;;4.29;84.72
38054;BME280;23859;50.672;7.164;2023-01-28T08:48:11;102020.34;;;4.30;85.29
38054;BME280;23859;50.672;7.164;2023-01-28T08:50:39;102030.66;;;4.13;86.07
38054;BME280;23859;50.672;7.164;2023-01-28T08:53:09;102044.72;;;4.12;86.47
38054;BME280;23859;50.672;7.164;2023-01-28T08:55:35;102039.28;;;3.95;87.05
38054;BME280;23859;50.672;7.164;2023-01-28T08:58:03;102049.78;;;3.95;87.82
38054;BME280;23859;50.672;7.164;2023-01-28T09:00:29;102043.03;;;3.89;88.32
38054;BME280;23859;50.672;7.164;2023-01-28T09:02:55;102048.81;;;3.98;88.77
38054;BME280;23859;50.672;7.164;2023-01-28T09:05:22;102048.84;;;4.19;86.24
38054;BME280;23859;50.672;7.164;2023-01-28T09:07:48;102047.88;;;4.22;85.82
38054;BME280;23859;50.672;7.164;2023-01-28T09:10:15;102041.28;;;4.53;83.62
38054;BME280;23859;50.672;7.164;2023-01-28T09:12:42;102053.72;;;4.28;86.37
38054;BME280;23859;50.672;7.164;2023-01-28T09:15:08;102047.59;;;4.49;84.00
38054;BME280;23859;50.672;7.164;2023-01-28T09:17:35;102043.41;;;4.65;82.56
38054;BME280;23859;50.672;7.164;2023-01-28T09:20:01;102045.44;;;4.59;84.08
38054;BME280;23859;50.672;7.164;2023-01-28T09:22:27;102051.78;;;4.55;84.59
38054;BME280;23859;50.672;7.164;2023-01-28T09:24:53;102058.28;;;4.45;83.74
38054;BME280;23859;50.672;7.164;2023-01-28T09:27:19;102058.75;;;4.34;85.19
38054;BME280;23859;50.672;7.164;2023-01-28T09:29:45;102075.31;;;4.36;85.70
38054;BME280;23859;50.672;7.164;2023-01-28T09:32:11;102073.53;;;4.37;86.18
38054;BME280;23859;50.672;7.164;2023-01-28T09:34:37;102074.31;;;4.39;86.16
38054;BME280;23859;50.672;7.164;2023-01-28T09:37:03;102097.16;;;4.38;85.09
38054;BME280;23859;50.672;7.164;2023-01-28T09:39:29;102090.13;;;4.17;85.37
38054;BME280;23859;50.672;7.164;2023-01-28T09:42:18;102089.44;;;4.55;83.85
38054;BME280;23859;50.672;7.164;2023-01-28T09:47:34;102100.09;;;4.31;83.54
38054;BME280;23859;50.672;7.164;2023-01-28T09:50:07;102104.63;;;4.27;83.92
38054;BME280;23859;50.672;7.164;2023-01-28T09:52:36;102106.34;;;4.28;83.88
38054;BME280;23859;50.672;7.164;2023-01-28T09:55:14;102110.59;;;4.52;81.88
38054;BME280;23859;50.672;7.164;2023-01-28T09:57:46;102111.91;;;4.42;83.64
38054;BME280;23859;50.672;7.164;2023-01-28T10:00:23;102114.75;;;4.36;83.67
38054;BME280;23859;50.672;7.164;2023-01-28T10:03:38;102122.25;;;4.47;83.02
38054;BME280;23859;50.672;7.164;2023-01-28T10:06:24;102120.03;;;4.36;82.36
38054;BME280;23859;50.672;7.164;2023-01-28T10:09:12;102117.75;;;4.27;82.90
38054;BME280;23859;50.672;7.164;2023-01-28T10:17:31;102104.25;;;4.36;81.25
38054;BME280;23859;50.672;7.164;2023-01-28T10:20:02;102124.19;;;4.63;79.77
38054;BME280;23859;50.672;7.164;2023-01-28T10:22:36;102132.78;;;4.47;80.72
38054;BME280;23859;50.672;7.164;2023-01-28T10:25:13;102127.00;;;4.37;81.03
38054;BME280;23859;50.672;7.164;2023-01-28T10:27:42;102131.56;;;4.55;80.50
38054;BME280;23859;50.672;7.164;2023-01-28T10:30:20;102123.50;;;4.15;82.03
38054;BME280;23859;50.672;7.164;2023-01-28T10:32:52;102131.78;;;4.28;81.98
38054;BME280;23859;50.672;7.164;2023-01-28T10:35:19;102130.06;;;4.27;82.92
38054;BME280;23859;50.672;7.164;2023-01-28T10:37:45;102120.84;;;4.38;80.97
38054;BME280;23859;50.672;7.164;2023-01-28T10:40:18;102110.97;;;4.43;80.88
38054;BME280;23859;50.672;7.164;2023-01-28T10:42:45;102107.72;;;4.58;78.92
38054;BME280;23859;50.672;7.164;2023-01-28T10:45:24;102119.78;;;4.21;78.74
38054;BME280;23859;50.672;7.164;2023-01-28T10:48:01;102116.19;;;4.23;81.01
38054;BME280;23859;50.672;7.164;2023-01-28T10:50:30;102112.81;;;4.20;79.39
38054;BME280;23859;50.672;7.164;2023-01-28T10:53:01;102125.56;;;4.52;78.12
38054;BME280;23859;50.672;7.164;2023-01-28T10:57:56;102121.19;;;4.29;78.99
38054;BME280;23859;50.672;7.164;2023-01-28T11:00:26;102122.78;;;4.33;78.65
38054;BME280;23859;50.672;7.164;2023-01-28T11:02:56;102119.44;;;4.51;77.95
38054;BME280;23859;50.672;7.164;2023-01-28T11:05:28;102118.09;;;4.41;79.64
38054;BME280;23859;50.672;7.164;2023-01-28T11:08:14;102116.19;;;4.23;80.47
38054;BME280;23859;50.672;7.164;2023-01-28T11:10:41;102119.25;;;4.34;77.94
38054;BME280;23859;50.672;7.164;2023-01-28T11:13:21;102111.16;;;4.60;77.58
38054;BME280;23859;50.672;7.164;2023-01-28T11:18:31;102131.81;;;4.70;78.41
38054;BME280;23859;50.672;7.164;2023-01-28T11:21:01;102115.25;;;4.88;77.96
38054;BME280;23859;50.672;7.164;2023-01-28T11:23:36;102111.78;;;4.88;77.66
38054;BME280;23859;50.672;7.164;2023-01-28T11:26:13;102106.25;;;5.14;75.52
38054;BME280;23859;50.672;7.164;2023-01-28T11:28:42;102115.03;;;5.34;74.54
38054;BME280;23859;50.672;7.164;2023-01-28T11:31:11;102106.25;;;5.14;75.73
38054;BME280;23859;50.672;7.164;2023-01-28T11:33:48;102092.75;;;5.01;75.99
38054;BME280;23859;50.672;7.164;2023-01-28T11:36:17;102098.94;;;5.00;77.37
38054;BME280;23859;50.672;7.164;2023-01-28T11:39:15;102096.50;;;4.96;76.84
38054;BME280;23859;50.672;7.164;2023-01-28T11:41:42;102099.59;;;4.85;76.96
38054;BME280;23859;50.672;7.164;2023-01-28T11:44:23;102084.13;;;4.98;77.52
38054;BME280;23859;50.672;7.164;2023-01-28T11:52:15;102106.72;;;4.62;76.59
38054;BME280;23859;50.672;7.164;2023-01-28T11:57:39;102098.69;;;4.65;79.02
38054;BME280;23859;50.672;7.164;2023-01-28T12:00:31;102106.09;;;4.56;77.71
38054;BME280;23859;50.672;7.164;2023-01-28T12:05:50;102093.91;;;5.16;73.25
38054;BME280;23859;50.672;7.164;2023-01-28T12:08:25;102089.78;;;4.89;75.18
38054;BME280;23859;50.672;7.164;2023-01-28T12:16:41;102087.56;;;5.00;73.27
38054;BME280;23859;50.672;7.164;2023-01-28T12:22:35;102080.31;;;5.05;74.70
38054;BME280;23859;50.672;7.164;2023-01-28T12:25:26;102074.03;;;4.87;73.26
38054;BME280;23859;50.672;7.164;2023-01-28T12:28:07;102092.34;;;4.90;74.28
38054;BME280;23859;50.672;7.164;2023-01-28T12:36:36;102094.47;;;4.61;73.04
38054;BME280;23859;50.672;7.164;2023-01-28T12:42:10;102089.38;;;4.78;71.62
38054;BME280;23859;50.672;7.164;2023-01-28T12:44:45;102077.59;;;4.86;72.47
38054;BME280;23859;50.672;7.164;2023-01-28T12:47:21;102076.03;;;5.22;69.80
38054;BME280;23859;50.672;7.164;2023-01-28T12:52:39;102073.41;;;5.02;71.18
38054;BME280;23859;50.672;7.164;2023-01-28T12:55:16;102076.75;;;5.26;69.06
38054;BME280;23859;50.672;7.164;2023-01-28T12:57:44;102078.47;;;5.27;69.71
38054;BME280;23859;50.672;7.164;2023-01-28T13:00:39;102077.13;;;5.17;68.82
38054;BME280;23859;50.672;7.164;2023-01-28T13:03:24;102077.88;;;5.00;68.80
38054;BME280;23859;50.672;7.164;2023-01-28T13:06:00;102072.94;;;5.13;68.12
38054;BME280;23859;50.672;7.164;2023-01-28T13:08:28;102079.91;;;4.94;69.74
38054;BME280;23859;50.672;7.164;2023-01-28T13:10:56;102073.13;;;4.88;69.45
38054;BME280;23859;50.672;7.164;2023-01-28T13:13:32;102080.25;;;4.86;68.88
38054;BME280;23859;50.672;7.164;2023-01-28T13:16:00;102078.88;;;4.76;70.48
38054;BME280;23859;50.672;7.164;2023-01-28T13:21:03;102086.81;;;4.55;68.53
38054;BME280;23859;50.672;7.164;2023-01-28T13:23:38;102085.81;;;4.79;69.65
38054;BME280;23859;50.672;7.164;2023-01-28T13:28:47;102076.16;;;4.79;68.84
38054;BME280;23859;50.672;7.164;2023-01-28T13:31:15;102068.31;;;4.78;66.72
38054;BME280;23859;50.672;7.164;2023-01-28T13:34:03;102071.81;;;4.36;70.40
38054;BME280;23859;50.672;7.164;2023-01-28T13:36:46;101958.56;;;3.76;68.24
38054;BME280;23859;50.672;7.164;2023-01-28T13:41:44;102055.06;;;4.60;71.48
38054;BME280;23859;50.672;7.164;2023-01-28T13:44:31;102063.97;;;4.77;69.24
38054;BME280;23859;50.672;7.164;2023-01-28T13:49:42;102049.59;;;4.64;70.08
38054;BME280;23859;50.672;7.164;2023-01-28T14:09:19;102015.56;;;4.18;69.29
38054;BME280;23859;50.672;7.164;2023-01-28T14:19:58;101992.00;;;4.57;65.98
38054;BME280;23859;50.672;7.164;2023-01-28T14:22:25;102001.63;;;5.17;63.41
38054;BME280;23859;50.672;7.164;2023-01-28T14:24:51;102014.00;;;4.95;66.09
38054;BME280;23859;50.672;7.164;2023-01-28T14:27:38;102034.91;;;5.00;64.68
38054;BME280;23859;50.672;7.164;2023-01-28T14:33:01;102038.56;;;4.76;68.89
38054;BME280;23859;50.672;7.164;2023-01-28T14:35:32;102046.28;;;4.59;68.80
38054;BME280;23859;50.672;7.164;2023-01-28T14:38:00;102050.22;;;4.70;68.06
38054;BME280;23859;50.672;7.164;2023-01-28T14:40:38;102058.72;;;4.56;68.90
38054;BME280;23859;50.672;7.164;2023-01-28T14:43:10;102065.28;;;4.67;70.11
38054;BME280;23859;50.672;7.164;2023-01-28T14:46:09;102064.06;;;4.74;69.37
38054;BME280;23859;50.672;7.164;2023-01-28T14:49:04;102059.38;;;4.60;67.96
38054;BME280;23859;50.672;7.164;2023-01-28T14:52:23;102054.44;;;4.53;67.44
38054;BME280;23859;50.672;7.164;2023-01-28T14:55:28;102073.16;;;4.46;68.82
38054;BME280;23859;50.672;7.164;2023-01-28T14:58:00;102083.69;;;4.46;69.49
38054;BME280;23859;50.672;7.164;2023-01-28T15:00:33;102078.94;;;4.55;69.74
38054;BME280;23859;50.672;7.164;2023-01-28T15:02:59;102078.81;;;4.37;70.55